createdAt,value
2022-11-06T00:02:28.198Z,10.44
2022-11-06T00:05:02.099Z,10.08
2022-11-06T00:07:31.870Z,9.91
2022-11-06T00:10:01.948Z,10.11
2022-11-06T00:12:31.680Z,10.08
2022-11-06T00:15:01.639Z,10.03
2022-11-06T00:17:31.406Z,10.14
2022-11-06T00:20:01.182Z,9.99
2022-11-06T00:22:35.704Z,9.93
2022-11-06T00:25:07.175Z,10.08
2022-11-06T00:27:42.524Z,10.13
2022-11-06T00:30:14.524Z,10.29
2022-11-06T00:32:44.352Z,10.06
2022-11-06T00:35:14.158Z,10.32
2022-11-06T00:37:43.987Z,9.96
2022-11-06T00:40:14.947Z,10.16
2022-11-06T00:42:44.777Z,10.10
2022-11-06T00:45:14.379Z,9.90
2022-11-06T00:47:44.140Z,9.98
2022-11-06T00:50:14.984Z,9.97
2022-11-06T00:52:45.861Z,9.80
2022-11-06T00:55:15.784Z,9.90
2022-11-06T00:57:45.598Z,10.02
2022-11-06T01:00:17.390Z,9.95
2022-11-06T01:02:48.425Z,9.96
2022-11-06T01:05:18.357Z,10.02
2022-11-06T01:07:48.413Z,10.03
2022-11-06T01:10:18.227Z,10.02
2022-11-06T01:12:48.138Z,9.76
2022-11-06T01:15:18.075Z,9.82
2022-11-06T01:17:48.231Z,9.86
2022-11-06T01:20:18.054Z,9.82
2022-11-06T01:22:48.097Z,9.70
2022-11-06T01:25:17.910Z,9.85
2022-11-06T01:27:48.123Z,9.59
2022-11-06T01:30:18.227Z,9.73
2022-11-06T01:32:48.163Z,9.67
2022-11-06T01:35:17.921Z,9.60
2022-11-06T01:37:47.906Z,9.76
2022-11-06T01:40:17.414Z,9.88
2022-11-06T01:42:47.217Z,9.85
2022-11-06T01:45:26.262Z,9.79
2022-11-06T01:47:56.401Z,9.73
2022-11-06T01:50:26.512Z,9.78
2022-11-06T01:52:58.619Z,9.64
2022-11-06T01:55:31.431Z,9.66
2022-11-06T01:58:04.063Z,9.76
2022-11-06T02:00:34.958Z,9.79
2022-11-06T02:03:05.042Z,9.63
2022-11-06T02:05:35.060Z,9.85
2022-11-06T02:08:06.014Z,9.92
2022-11-06T02:10:35.996Z,9.92
2022-11-06T02:13:11.712Z,9.94
2022-11-06T02:15:52.782Z,10.05
2022-11-06T02:18:46.080Z,10.03
2022-11-06T02:21:40.987Z,9.82
2022-11-06T02:24:32.197Z,10.01
2022-11-06T02:27:16.920Z,10.07
2022-11-06T02:29:52.068Z,10.01
2022-11-06T02:32:36.335Z,10.14
2022-11-06T02:35:19.830Z,10.14
2022-11-06T02:37:53.764Z,10.12
2022-11-06T02:40:27.364Z,9.98
2022-11-06T02:42:58.910Z,9.95
2022-11-06T02:45:31.834Z,10.12
2022-11-06T02:48:04.248Z,10.22
2022-11-06T02:50:37.431Z,10.01
2022-11-06T02:53:09.479Z,10.17
2022-11-06T02:55:42.166Z,10.10
2022-11-06T02:58:26.514Z,10.10
2022-11-06T03:01:07.452Z,10.12
2022-11-06T03:03:40.419Z,10.12
2022-11-06T03:06:16.182Z,10.26
2022-11-06T03:09:03.451Z,10.38
2022-11-06T03:11:38.201Z,10.35
2022-11-06T03:14:17.120Z,10.36
2022-11-06T03:16:58.938Z,10.46
2022-11-06T03:19:37.509Z,10.34
2022-11-06T03:22:12.579Z,10.55
2022-11-06T03:24:48.615Z,10.43
2022-11-06T03:27:36.162Z,10.43
2022-11-06T03:30:15.261Z,10.62
2022-11-06T03:32:53.353Z,10.65
2022-11-06T03:35:26.132Z,10.37
2022-11-06T03:38:04.484Z,10.48
2022-11-06T03:40:37.224Z,10.63
2022-11-06T03:43:09.659Z,10.46
2022-11-06T03:45:42.749Z,10.46
2022-11-06T03:48:19.957Z,10.50
2022-11-06T03:50:52.723Z,10.48
2022-11-06T03:53:30.999Z,10.60
2022-11-06T03:56:12.770Z,10.35
2022-11-06T03:58:45.715Z,10.50
2022-11-06T04:01:18.571Z,10.74
2022-11-06T04:04:02.467Z,10.63
2022-11-06T04:06:37.852Z,10.78
2022-11-06T04:09:28.373Z,10.63
2022-11-06T04:12:18.442Z,10.65
2022-11-06T04:14:51.462Z,10.58
2022-11-06T04:17:23.247Z,10.83
2022-11-06T04:19:56.053Z,10.63
2022-11-06T04:22:48.261Z,10.63
2022-11-06T04:25:44.610Z,10.68
2022-11-06T04:28:38.147Z,10.67
2022-11-06T04:31:28.770Z,10.61
2022-11-06T04:34:01.588Z,10.73
2022-11-06T04:36:34.397Z,10.63
2022-11-06T04:39:25.087Z,10.63
2022-11-06T04:42:13.951Z,10.83
2022-11-06T04:44:46.906Z,10.67
2022-11-06T04:47:19.860Z,10.60
2022-11-06T04:49:52.222Z,10.54
2022-11-06T04:52:25.050Z,10.49
2022-11-06T04:54:57.062Z,10.55
2022-11-06T04:57:27.555Z,10.39
2022-11-06T04:59:57.604Z,10.33
2022-11-06T05:02:27.223Z,10.57
2022-11-06T05:04:57.009Z,10.48
2022-11-06T05:07:26.750Z,10.60
2022-11-06T05:09:56.323Z,10.46
2022-11-06T05:12:25.925Z,10.65
2022-11-06T05:14:56.037Z,10.22
2022-11-06T05:17:25.580Z,10.30
2022-11-06T05:19:55.627Z,10.37
2022-11-06T05:22:42.750Z,10.30
2022-11-06T05:25:12.518Z,10.30
2022-11-06T05:27:42.251Z,10.20
2022-11-06T05:30:12.480Z,10.30
2022-11-06T05:32:42.396Z,10.33
2022-11-06T05:35:12.047Z,10.16
2022-11-06T05:37:41.886Z,10.26
2022-11-06T05:40:13.865Z,10.27
2022-11-06T05:42:44.689Z,10.27
2022-11-06T05:45:14.478Z,10.30
2022-11-06T05:47:44.221Z,10.37
2022-11-06T05:50:15.591Z,10.42
2022-11-06T05:52:45.427Z,10.38
2022-11-06T05:55:15.559Z,10.40
2022-11-06T05:57:45.433Z,10.58
2022-11-06T06:00:17.985Z,10.56
2022-11-06T06:02:48.302Z,10.71
2022-11-06T06:05:18.305Z,10.81
2022-11-06T06:07:48.080Z,10.82
2022-11-06T06:10:17.616Z,10.77
2022-11-06T06:12:47.360Z,10.44
2022-11-06T06:15:17.335Z,10.41
2022-11-06T06:17:47.205Z,10.59
2022-11-06T06:20:17.401Z,10.74
2022-11-06T06:22:55.267Z,10.69
2022-11-06T06:25:26.241Z,10.74
2022-11-06T06:27:56.638Z,10.60
2022-11-06T06:30:26.929Z,10.70
2022-11-06T06:32:56.326Z,10.53
2022-11-06T06:35:26.079Z,10.40
2022-11-06T06:37:55.897Z,10.46
2022-11-06T06:40:26.798Z,10.28
2022-11-06T06:43:00.010Z,10.47
2022-11-06T06:45:29.806Z,10.45
2022-11-06T06:48:04.516Z,10.53
2022-11-06T06:50:34.711Z,10.62
2022-11-06T06:53:04.245Z,10.52
2022-11-06T06:55:34.158Z,10.54
2022-11-06T06:58:04.270Z,10.43
2022-11-06T07:00:33.978Z,10.47
2022-11-06T07:03:03.834Z,10.58
2022-11-06T07:05:33.585Z,10.54
2022-11-06T07:08:03.405Z,10.52
2022-11-06T07:10:33.458Z,10.42
2022-11-06T07:13:04.499Z,10.57
2022-11-06T07:15:34.350Z,10.61
2022-11-06T07:18:05.319Z,10.61
2022-11-06T07:20:35.991Z,10.40
2022-11-06T07:23:09.409Z,10.57
2022-11-06T07:25:39.147Z,10.65
2022-11-06T07:28:10.520Z,10.71
2022-11-06T07:30:40.423Z,10.75
2022-11-06T07:33:10.166Z,10.67
2022-11-06T07:35:39.964Z,10.93
2022-11-06T07:38:11.198Z,11.06
2022-11-06T07:40:41.145Z,11.11
2022-11-06T07:43:13.856Z,10.89
2022-11-06T07:45:43.619Z,10.86
2022-11-06T07:48:13.734Z,10.77
2022-11-06T07:50:43.642Z,10.76
2022-11-06T07:53:14.025Z,11.00
2022-11-06T07:55:51.961Z,11.05
2022-11-06T07:58:22.075Z,10.98
2022-11-06T08:00:54.525Z,11.12
2022-11-06T08:03:25.302Z,11.18
2022-11-06T08:05:55.051Z,11.17
2022-11-06T08:08:25.015Z,11.29
2022-11-06T08:10:55.087Z,10.98
2022-11-06T08:13:26.109Z,11.03
2022-11-06T08:15:55.902Z,11.21
2022-11-06T08:18:25.387Z,10.99
2022-11-06T08:20:55.125Z,11.05
2022-11-06T08:23:25.165Z,11.05
2022-11-06T08:25:58.009Z,11.11
2022-11-06T08:28:28.003Z,11.13
2022-11-06T08:30:57.737Z,11.14
2022-11-06T08:33:27.482Z,11.26
2022-11-06T08:35:57.224Z,11.26
2022-11-06T08:38:27.011Z,11.26
2022-11-06T08:40:56.863Z,11.42
2022-11-06T08:43:27.400Z,11.45
2022-11-06T08:45:57.195Z,11.77
2022-11-06T08:48:26.683Z,11.75
2022-11-06T08:50:56.635Z,11.73
2022-11-06T08:53:26.254Z,11.79
2022-11-06T08:55:56.184Z,11.90
2022-11-06T08:58:25.807Z,12.06
2022-11-06T09:00:55.630Z,12.12
2022-11-06T09:03:25.673Z,12.17
2022-11-06T09:05:55.414Z,12.10
2022-11-06T09:08:25.249Z,12.24
2022-11-06T09:10:58.616Z,12.13
2022-11-06T09:13:27.354Z,12.10
2022-11-06T09:15:57.075Z,12.10
2022-11-06T09:18:26.837Z,12.21
2022-11-06T09:20:58.025Z,12.36
2022-11-06T09:23:28.111Z,12.33
2022-11-06T09:25:59.160Z,12.38
2022-11-06T09:28:28.907Z,12.42
2022-11-06T09:30:58.888Z,12.86
2022-11-06T09:33:28.647Z,12.79
2022-11-06T09:35:58.713Z,12.93
2022-11-06T09:38:28.448Z,12.83
2022-11-06T09:41:01.192Z,13.00
2022-11-06T09:44:03.636Z,12.94
2022-11-06T09:46:11.399Z,12.85
2022-11-06T09:48:44.347Z,13.06
2022-11-06T09:51:22.954Z,12.94
2022-11-06T09:54:04.295Z,12.75
2022-11-06T09:56:37.361Z,12.85
2022-11-06T09:59:10.140Z,12.86
2022-11-06T10:01:43.135Z,13.20
2022-11-06T10:04:28.226Z,13.34
2022-11-06T10:06:58.739Z,13.25
2022-11-06T10:09:28.880Z,13.39
2022-11-06T10:12:10.712Z,13.51
2022-11-06T10:15:01.506Z,13.56
2022-11-06T10:17:43.299Z,13.09
2022-11-06T10:20:27.140Z,12.89
2022-11-06T10:23:12.186Z,13.11
2022-11-06T10:25:45.040Z,13.26
2022-11-06T10:28:17.753Z,13.60
2022-11-06T10:30:59.395Z,13.58
2022-11-06T10:33:44.170Z,13.48
2022-11-06T10:36:18.007Z,13.44
2022-11-06T10:38:49.705Z,13.44
2022-11-06T10:41:22.527Z,13.39
2022-11-06T10:44:04.112Z,13.69
2022-11-06T10:46:48.392Z,13.77
2022-11-06T10:49:23.739Z,13.91
2022-11-06T10:52:27.022Z,14.46
2022-11-06T10:55:22.285Z,14.53
2022-11-06T10:58:01.109Z,13.64
2022-11-06T11:00:32.770Z,13.64
2022-11-06T11:03:06.441Z,13.89
2022-11-06T11:05:42.100Z,13.45
2022-11-06T11:08:33.141Z,13.40
2022-11-06T11:11:18.337Z,13.24
2022-11-06T11:13:53.543Z,13.31
2022-11-06T11:16:29.036Z,13.63
2022-11-06T11:19:17.952Z,13.68
2022-11-06T11:21:56.375Z,14.09
2022-11-06T11:24:26.479Z,14.09
2022-11-06T11:27:05.247Z,14.20
2022-11-06T11:29:44.877Z,14.24
2022-11-06T11:32:17.987Z,14.26
2022-11-06T11:34:56.291Z,14.26
2022-11-06T11:37:31.383Z,14.39
2022-11-06T11:40:22.698Z,14.52
2022-11-06T11:42:52.153Z,14.83
2022-11-06T11:45:22.527Z,14.85
2022-11-06T11:47:53.188Z,14.98
2022-11-06T11:50:31.614Z,14.81
2022-11-06T11:53:10.791Z,14.88
2022-11-06T11:55:44.043Z,14.63
2022-11-06T11:58:22.576Z,14.02
2022-11-06T12:00:58.115Z,14.03
2022-11-06T12:03:34.253Z,13.95
2022-11-06T12:06:10.363Z,14.15
2022-11-06T12:08:42.685Z,14.28
2022-11-06T12:11:15.776Z,14.02
2022-11-06T12:13:45.526Z,14.05
2022-11-06T12:16:18.341Z,14.05
2022-11-06T12:18:55.989Z,14.05
2022-11-06T12:21:37.077Z,13.77
2022-11-06T12:24:19.611Z,13.69
2022-11-06T12:27:11.571Z,13.97
2022-11-06T12:29:44.197Z,13.97
2022-11-06T12:32:43.160Z,13.81
2022-11-06T12:35:20.771Z,13.86
2022-11-06T12:38:05.184Z,13.88
2022-11-06T12:40:40.129Z,14.02
2022-11-06T12:43:18.859Z,13.55
2022-11-06T12:46:00.466Z,13.61
2022-11-06T12:48:38.848Z,13.66
2022-11-06T12:51:30.739Z,13.54
2022-11-06T12:54:14.924Z,13.68
2022-11-06T12:56:59.594Z,13.88
2022-11-06T12:59:38.233Z,13.96
2022-11-06T13:02:45.135Z,13.82
2022-11-06T13:05:20.158Z,13.89
2022-11-06T13:08:08.219Z,13.82
2022-11-06T13:10:59.015Z,13.85
2022-11-06T13:13:39.554Z,13.61
2022-11-06T13:16:14.418Z,13.60
2022-11-06T13:18:56.110Z,13.58
2022-11-06T13:21:34.444Z,13.59
2022-11-06T13:24:10.232Z,13.55
2022-11-06T13:26:43.283Z,13.63
2022-11-06T13:29:16.052Z,13.79
2022-11-06T13:31:57.414Z,13.35
2022-11-06T13:34:30.348Z,13.81
2022-11-06T13:37:00.785Z,13.61
2022-11-06T13:39:48.637Z,13.52
2022-11-06T13:42:26.864Z,13.78
2022-11-06T13:44:58.037Z,13.23
2022-11-06T13:47:30.789Z,13.37
2022-11-06T13:50:09.306Z,13.29
2022-11-06T13:52:54.468Z,13.35
2022-11-06T13:55:27.340Z,13.35
2022-11-06T13:58:21.237Z,13.29
2022-11-06T14:01:14.923Z,13.05
2022-11-06T14:03:51.284Z,13.04
2022-11-06T14:06:26.872Z,12.90
2022-11-06T14:08:59.364Z,12.90
2022-11-06T14:11:32.041Z,12.92
2022-11-06T14:14:17.500Z,12.89
2022-11-06T14:16:49.315Z,12.89
2022-11-06T14:19:30.373Z,12.52
2022-11-06T14:22:28.650Z,12.52
2022-11-06T14:25:01.892Z,12.44
2022-11-06T14:27:33.379Z,12.32
2022-11-06T14:30:09.382Z,12.01
2022-11-06T14:32:41.582Z,11.96
2022-11-06T14:35:36.572Z,11.82
2022-11-06T14:38:18.501Z,11.36
2022-11-06T14:40:48.383Z,11.43
2022-11-06T14:43:33.136Z,11.43
2022-11-06T14:46:06.013Z,11.39
2022-11-06T14:48:39.102Z,11.19
2022-11-06T14:51:11.957Z,10.94
2022-11-06T14:53:53.025Z,11.17
2022-11-06T14:56:28.443Z,11.15
2022-11-06T14:59:01.288Z,10.75
2022-11-06T15:01:34.065Z,10.78
2022-11-06T15:04:09.770Z,10.59
2022-11-06T15:06:43.522Z,10.59
2022-11-06T15:09:18.423Z,10.71
2022-11-06T15:11:56.450Z,10.71
2022-11-06T15:14:29.326Z,10.53
2022-11-06T15:17:13.647Z,10.34
2022-11-06T15:19:46.710Z,10.30
2022-11-06T15:22:31.082Z,10.39
2022-11-06T15:25:18.749Z,10.28
2022-11-06T15:27:54.230Z,10.21
2022-11-06T15:30:24.149Z,9.99
2022-11-06T15:32:55.676Z,9.99
2022-11-06T15:35:28.773Z,9.99
2022-11-06T15:38:01.557Z,9.90
2022-11-06T15:40:39.522Z,10.05
2022-11-06T15:43:27.162Z,9.94
2022-11-06T15:46:11.739Z,9.86
2022-11-06T15:48:41.500Z,9.76
2022-11-06T15:51:22.313Z,9.80
2022-11-06T15:53:52.107Z,9.54
2022-11-06T15:56:27.500Z,9.56
2022-11-06T15:59:14.634Z,9.46
2022-11-06T16:01:49.799Z,9.54
2022-11-06T16:04:22.546Z,9.45
2022-11-06T16:06:55.171Z,9.50
2022-11-06T16:09:27.396Z,9.55
2022-11-06T16:11:58.993Z,9.58
2022-11-06T16:14:28.744Z,9.45
2022-11-06T16:17:00.602Z,9.27
2022-11-06T16:19:38.367Z,9.11
2022-11-06T16:22:16.720Z,9.19
2022-11-06T16:24:49.780Z,9.43
2022-11-06T16:27:21.934Z,9.18
2022-11-06T16:30:02.337Z,9.24
2022-11-06T16:32:35.888Z,9.24
2022-11-06T16:35:32.449Z,9.13
2022-11-06T16:38:39.841Z,9.04
2022-11-06T16:40:53.386Z,9.20
2022-11-06T16:43:24.354Z,9.22
2022-11-06T16:46:03.817Z,8.99
2022-11-06T16:48:41.870Z,9.17
2022-11-06T16:51:14.568Z,9.12
2022-11-06T16:53:55.666Z,9.11
2022-11-06T16:56:33.482Z,9.19
2022-11-06T16:59:06.475Z,9.07
2022-11-06T17:01:45.261Z,9.07
2022-11-06T17:04:20.950Z,9.16
2022-11-06T17:06:51.819Z,9.14
2022-11-06T17:09:33.528Z,9.15
2022-11-06T17:12:04.633Z,9.18
2022-11-06T17:14:35.169Z,9.03
2022-11-06T17:17:05.518Z,9.05
2022-11-06T17:19:35.541Z,8.91
2022-11-06T17:22:08.338Z,8.81
2022-11-06T17:24:38.591Z,9.04
2022-11-06T17:27:08.677Z,9.03
2022-11-06T17:29:38.937Z,9.16
2022-11-06T17:32:08.749Z,9.09
2022-11-06T17:34:38.766Z,9.18
2022-11-06T17:37:10.027Z,9.02
2022-11-06T17:39:40.085Z,8.95
2022-11-06T17:42:09.812Z,9.05
2022-11-06T17:44:39.841Z,9.09
2022-11-06T17:47:09.861Z,8.99
2022-11-06T17:49:39.948Z,8.96
2022-11-06T17:52:09.758Z,9.01
2022-11-06T17:54:40.663Z,9.32
2022-11-06T17:57:10.399Z,9.19
2022-11-06T17:59:40.415Z,9.19
2022-11-06T18:02:25.426Z,9.27
2022-11-06T18:04:49.881Z,9.22
2022-11-06T18:07:19.679Z,9.30
2022-11-06T18:09:49.717Z,9.42
2022-11-06T18:12:21.388Z,9.27
2022-11-06T18:14:51.468Z,9.38
2022-11-06T18:17:21.201Z,9.27
2022-11-06T18:19:51.570Z,9.23
2022-11-06T18:22:21.308Z,9.37
2022-11-06T18:24:51.028Z,9.38
2022-11-06T18:27:20.793Z,9.48
2022-11-06T18:29:50.806Z,9.36
2022-11-06T18:32:20.242Z,9.28
2022-11-06T18:34:50.032Z,9.38
2022-11-06T18:37:19.775Z,9.44
2022-11-06T18:39:49.495Z,9.36
2022-11-06T18:42:19.143Z,9.51
2022-11-06T18:44:48.863Z,9.33
2022-11-06T18:47:18.341Z,9.46
2022-11-06T18:49:48.332Z,9.39
2022-11-06T18:52:37.994Z,9.41
2022-11-06T18:54:51.039Z,9.36
2022-11-06T18:57:20.800Z,9.44
2022-11-06T18:59:50.548Z,9.36
2022-11-06T19:02:20.111Z,9.41
2022-11-06T19:04:50.025Z,9.75
2022-11-06T19:07:20.040Z,9.58
2022-11-06T19:09:49.934Z,9.56
2022-11-06T19:12:19.709Z,9.57
2022-11-06T19:14:49.731Z,9.64
2022-11-06T19:17:19.449Z,9.52
2022-11-06T19:19:49.414Z,9.52
2022-11-06T19:22:18.924Z,9.66
2022-11-06T19:24:48.446Z,9.82
2022-11-06T19:27:18.176Z,9.95
2022-11-06T19:29:48.065Z,9.60
2022-11-06T19:32:18.748Z,9.52
2022-11-06T19:34:48.633Z,9.64
2022-11-06T19:37:18.373Z,10.02
2022-11-06T19:39:48.574Z,9.80
2022-11-06T19:42:19.174Z,9.95
2022-11-06T19:44:48.918Z,9.88
2022-11-06T19:47:18.661Z,9.95
2022-11-06T19:49:48.171Z,9.89
2022-11-06T19:52:42.633Z,9.99
2022-11-06T19:54:49.615Z,10.02
2022-11-06T19:57:28.766Z,9.86
2022-11-06T19:59:51.060Z,9.93
2022-11-06T20:02:20.988Z,9.91
2022-11-06T20:04:50.777Z,10.10
2022-11-06T20:07:20.525Z,10.01
2022-11-06T20:09:50.553Z,10.09
2022-11-06T20:12:20.250Z,10.09
2022-11-06T20:14:50.514Z,10.08
2022-11-06T20:17:20.246Z,10.23
2022-11-06T20:19:50.051Z,10.06
2022-11-06T20:22:19.770Z,10.32
2022-11-06T20:24:49.521Z,10.28
2022-11-06T20:27:19.331Z,10.29
2022-11-06T20:29:49.062Z,10.12
2022-11-06T20:32:19.446Z,10.12
2022-11-06T20:34:49.479Z,10.59
2022-11-06T20:37:19.592Z,10.43
2022-11-06T20:39:51.352Z,10.61
2022-11-06T20:42:21.162Z,10.64
2022-11-06T20:44:50.589Z,10.53
2022-11-06T20:47:20.322Z,10.52
2022-11-06T20:49:50.293Z,10.49
2022-11-06T20:52:19.726Z,10.39
2022-11-06T20:54:49.673Z,10.56
2022-11-06T20:57:19.463Z,10.76
2022-11-06T20:59:49.361Z,10.74
2022-11-06T21:02:19.763Z,10.75
2022-11-06T21:04:49.648Z,10.77
2022-11-06T21:07:19.488Z,10.72
2022-11-06T21:09:49.279Z,10.86
2022-11-06T21:12:20.384Z,10.88
2022-11-06T21:14:50.261Z,10.94
2022-11-06T21:17:19.736Z,10.78
2022-11-06T21:19:49.541Z,10.89
2022-11-06T21:22:18.985Z,11.02
2022-11-06T21:24:49.020Z,10.91
2022-11-06T21:27:19.211Z,10.90
2022-11-06T21:29:48.961Z,10.90
2022-11-06T21:32:18.701Z,10.88
2022-11-06T21:34:48.318Z,10.96
2022-11-06T21:37:18.341Z,11.00
2022-11-06T21:39:48.433Z,10.98
2022-11-06T21:42:17.900Z,11.09
2022-11-06T21:44:48.166Z,10.96
2022-11-06T21:47:17.643Z,11.03
2022-11-06T21:49:49.033Z,11.11
2022-11-06T21:52:37.135Z,11.20
2022-11-06T21:55:28.154Z,11.01
2022-11-06T21:57:58.182Z,11.19
2022-11-06T22:00:27.802Z,11.02
2022-11-06T22:02:57.741Z,11.02
2022-11-06T22:05:27.264Z,11.22
2022-11-06T22:07:56.981Z,11.11
2022-11-06T22:10:27.526Z,11.27
2022-11-06T22:12:57.264Z,11.34
2022-11-06T22:15:27.409Z,11.25
2022-11-06T22:17:57.170Z,11.01
2022-11-06T22:20:26.889Z,11.14
2022-11-06T22:22:56.629Z,11.19
2022-11-06T22:25:26.353Z,10.93
2022-11-06T22:27:56.096Z,11.13
2022-11-06T22:30:25.672Z,10.92
2022-11-06T22:32:55.416Z,10.95
2022-11-06T22:35:24.867Z,11.03
2022-11-06T22:37:54.612Z,10.99
2022-11-06T22:40:24.325Z,11.05
2022-11-06T22:42:54.054Z,10.95
2022-11-06T22:45:23.865Z,11.04
2022-11-06T22:47:53.984Z,10.94
2022-11-06T22:50:23.770Z,11.04
2022-11-06T22:52:53.500Z,11.04
2022-11-06T22:55:23.236Z,10.95
2022-11-06T22:57:52.976Z,10.95
2022-11-06T23:00:24.206Z,10.97
2022-11-06T23:02:54.338Z,11.26
2022-11-06T23:05:24.140Z,11.01
2022-11-06T23:07:53.874Z,10.90
2022-11-06T23:10:29.196Z,11.08
2022-11-06T23:12:59.143Z,11.04
2022-11-06T23:15:28.872Z,11.08
2022-11-06T23:17:58.834Z,11.10
2022-11-06T23:20:32.122Z,11.00
2022-11-06T23:23:03.095Z,10.96
2022-11-06T23:25:33.155Z,10.98
2022-11-06T23:28:03.846Z,11.01
2022-11-06T23:30:35.406Z,11.16
2022-11-06T23:33:05.139Z,11.19
2022-11-06T23:35:35.490Z,11.18
2022-11-06T23:38:06.578Z,11.26
2022-11-06T23:40:36.306Z,11.49
2022-11-06T23:43:06.127Z,11.34
2022-11-06T23:45:51.290Z,11.33
2022-11-06T23:48:21.013Z,11.62
2022-11-06T23:50:50.742Z,11.51
2022-11-06T23:53:20.753Z,11.51
2022-11-06T23:55:50.493Z,11.37
2022-11-06T23:58:20.272Z,11.37
